sensor_id;sensor_type;location;lat;lon;timestamp;temperature;humidity
83102;SHT31;72973;51.784;4.660;2024-01-16T00:01:30;2.48;83.60
83102;SHT31;72973;51.784;4.660;2024-01-16T00:03:57;2.52;83.66
83102;SHT31;72973;51.784;4.660;2024-01-16T00:06:23;2.60;83.36
83102;SHT31;72973;51.784;4.660;2024-01-16T00:08:50;2.66;83.34
83102;SHT31;72973;51.784;4.660;2024-01-16T00:11:16;2.83;82.77
83102;SHT31;72973;51.784;4.660;2024-01-16T00:13:43;2.76;82.77
83102;SHT31;72973;51.784;4.660;2024-01-16T00:16:09;2.89;82.42
83102;SHT31;72973;51.784;4.660;2024-01-16T00:18:35;2.94;82.26
83102;SHT31;72973;51.784;4.660;2024-01-16T00:21:02;2.87;82.48
83102;SHT31;72973;51.784;4.660;2024-01-16T00:23:29;2.90;82.75
83102;SHT31;72973;51.784;4.660;2024-01-16T00:25:58;2.86;82.98
83102;SHT31;72973;51.784;4.660;2024-01-16T00:28:25;2.86;82.86
83102;SHT31;72973;51.784;4.660;2024-01-16T00:30:51;2.84;82.98
83102;SHT31;72973;51.784;4.660;2024-01-16T00:33:17;2.92;82.74
83102;SHT31;72973;51.784;4.660;2024-01-16T00:35:44;2.86;82.54
83102;SHT31;72973;51.784;4.660;2024-01-16T00:38:11;2.89;82.63
83102;SHT31;72973;51.784;4.660;2024-01-16T00:40:37;2.99;82.43
83102;SHT31;72973;51.784;4.660;2024-01-16T00:43:04;2.99;82.27
83102;SHT31;72973;51.784;4.660;2024-01-16T00:45:30;2.94;82.29
83102;SHT31;72973;51.784;4.660;2024-01-16T00:47:57;2.96;82.48
83102;SHT31;72973;51.784;4.660;2024-01-16T00:50:23;2.90;82.69
83102;SHT31;72973;51.784;4.660;2024-01-16T00:52:50;2.87;82.95
83102;SHT31;72973;51.784;4.660;2024-01-16T00:55:17;2.86;83.03
83102;SHT31;72973;51.784;4.660;2024-01-16T00:57:43;2.86;83.01
83102;SHT31;72973;51.784;4.660;2024-01-16T01:00:10;2.89;82.94
83102;SHT31;72973;51.784;4.660;2024-01-16T01:02:37;2.80;83.00
83102;SHT31;72973;51.784;4.660;2024-01-16T01:05:04;2.79;83.14
83102;SHT31;72973;51.784;4.660;2024-01-16T01:07:30;2.75;83.06
83102;SHT31;72973;51.784;4.660;2024-01-16T01:09:57;2.71;83.14
83102;SHT31;72973;51.784;4.660;2024-01-16T01:12:23;2.80;83.00
83102;SHT31;72973;51.784;4.660;2024-01-16T01:14:50;2.79;82.82
83102;SHT31;72973;51.784;4.660;2024-01-16T01:17:16;2.83;82.69
83102;SHT31;72973;51.784;4.660;2024-01-16T01:19:42;2.77;82.70
83102;SHT31;72973;51.784;4.660;2024-01-16T01:22:09;2.82;82.63
83102;SHT31;72973;51.784;4.660;2024-01-16T01:24:35;2.82;82.54
83102;SHT31;72973;51.784;4.660;2024-01-16T01:27:02;2.69;83.05
83102;SHT31;72973;51.784;4.660;2024-01-16T01:29:28;2.66;83.13
83102;SHT31;72973;51.784;4.660;2024-01-16T01:31:55;2.67;83.07
83102;SHT31;72973;51.784;4.660;2024-01-16T01:34:21;2.76;82.87
83102;SHT31;72973;51.784;4.660;2024-01-16T01:36:48;2.69;82.85
83102;SHT31;72973;51.784;4.660;2024-01-16T01:39:14;2.79;82.92
83102;SHT31;72973;51.784;4.660;2024-01-16T01:41:41;2.75;83.15
83102;SHT31;72973;51.784;4.660;2024-01-16T01:44:07;2.77;83.18
83102;SHT31;72973;51.784;4.660;2024-01-16T01:46:34;2.75;83.15
83102;SHT31;72973;51.784;4.660;2024-01-16T01:49:03;2.66;83.30
83102;SHT31;72973;51.784;4.660;2024-01-16T01:51:29;2.69;83.21
83102;SHT31;72973;51.784;4.660;2024-01-16T01:53:57;2.65;83.59
83102;SHT31;72973;51.784;4.660;2024-01-16T01:56:24;2.76;83.38
83102;SHT31;72973;51.784;4.660;2024-01-16T01:58:54;2.80;83.37
83102;SHT31;72973;51.784;4.660;2024-01-16T02:01:23;2.86;83.28
83102;SHT31;72973;51.784;4.660;2024-01-16T02:03:51;2.93;82.86
83102;SHT31;72973;51.784;4.660;2024-01-16T02:06:18;2.93;82.75
83102;SHT31;72973;51.784;4.660;2024-01-16T02:08:45;3.00;82.78
83102;SHT31;72973;51.784;4.660;2024-01-16T02:11:12;3.00;82.72
83102;SHT31;72973;51.784;4.660;2024-01-16T02:13:38;3.05;82.51
83102;SHT31;72973;51.784;4.660;2024-01-16T02:16:04;3.04;82.54
83102;SHT31;72973;51.784;4.660;2024-01-16T02:18:32;3.03;82.52
83102;SHT31;72973;51.784;4.660;2024-01-16T02:21:05;3.04;82.08
83102;SHT31;72973;51.784;4.660;2024-01-16T02:23:33;2.97;82.19
83102;SHT31;72973;51.784;4.660;2024-01-16T02:26:00;2.97;82.37
83102;SHT31;72973;51.784;4.660;2024-01-16T02:28:27;2.99;82.31
83102;SHT31;72973;51.784;4.660;2024-01-16T02:30:54;2.92;82.42
83102;SHT31;72973;51.784;4.660;2024-01-16T02:33:20;2.92;82.38
83102;SHT31;72973;51.784;4.660;2024-01-16T02:35:46;2.87;82.27
83102;SHT31;72973;51.784;4.660;2024-01-16T02:38:13;2.83;82.26
83102;SHT31;72973;51.784;4.660;2024-01-16T02:40:40;2.75;82.50
83102;SHT31;72973;51.784;4.660;2024-01-16T02:43:06;2.76;82.51
83102;SHT31;72973;51.784;4.660;2024-01-16T02:45:33;2.77;82.39
83102;SHT31;72973;51.784;4.660;2024-01-16T02:48:00;2.97;82.03
83102;SHT31;72973;51.784;4.660;2024-01-16T02:50:26;2.92;82.29
83102;SHT31;72973;51.784;4.660;2024-01-16T02:52:53;2.97;82.36
83102;SHT31;72973;51.784;4.660;2024-01-16T02:55:19;2.87;82.24
83102;SHT31;72973;51.784;4.660;2024-01-16T02:57:46;2.80;81.97
83102;SHT31;72973;51.784;4.660;2024-01-16T03:00:13;2.69;81.37
83102;SHT31;72973;51.784;4.660;2024-01-16T03:02:40;2.60;80.52
83102;SHT31;72973;51.784;4.660;2024-01-16T03:05:06;2.65;80.63
83102;SHT31;72973;51.784;4.660;2024-01-16T03:07:34;2.73;80.37
83102;SHT31;72973;51.784;4.660;2024-01-16T03:10:01;2.84;80.45
83102;SHT31;72973;51.784;4.660;2024-01-16T03:12:27;2.90;80.42
83102;SHT31;72973;51.784;4.660;2024-01-16T03:14:54;2.99;80.14
83102;SHT31;72973;51.784;4.660;2024-01-16T03:17:20;3.05;80.23
83102;SHT31;72973;51.784;4.660;2024-01-16T03:19:47;3.14;79.39
83102;SHT31;72973;51.784;4.660;2024-01-16T03:22:14;3.11;79.22
83102;SHT31;72973;51.784;4.660;2024-01-16T03:24:40;3.11;79.21
83102;SHT31;72973;51.784;4.660;2024-01-16T03:27:07;3.28;78.95
83102;SHT31;72973;51.784;4.660;2024-01-16T03:29:33;3.15;78.93
83102;SHT31;72973;51.784;4.660;2024-01-16T03:32:00;3.22;78.85
83102;SHT31;72973;51.784;4.660;2024-01-16T03:34:27;3.18;78.94
83102;SHT31;72973;51.784;4.660;2024-01-16T03:36:53;3.27;78.88
83102;SHT31;72973;51.784;4.660;2024-01-16T03:39:20;3.30;79.37
83102;SHT31;72973;51.784;4.660;2024-01-16T03:41:46;3.31;79.42
83102;SHT31;72973;51.784;4.660;2024-01-16T03:44:13;3.39;78.91
83102;SHT31;72973;51.784;4.660;2024-01-16T03:46:39;3.24;78.59
83102;SHT31;72973;51.784;4.660;2024-01-16T03:49:06;3.31;78.00
83102;SHT31;72973;51.784;4.660;2024-01-16T03:51:32;3.25;78.39
83102;SHT31;72973;51.784;4.660;2024-01-16T03:53:59;3.21;77.99
83102;SHT31;72973;51.784;4.660;2024-01-16T03:56:25;3.07;78.77
83102;SHT31;72973;51.784;4.660;2024-01-16T03:58:51;3.08;79.35
83102;SHT31;72973;51.784;4.660;2024-01-16T04:01:18;3.15;79.12
83102;SHT31;72973;51.784;4.660;2024-01-16T04:03:44;3.05;79.77
83102;SHT31;72973;51.784;4.660;2024-01-16T04:06:17;3.04;79.70
83102;SHT31;72973;51.784;4.660;2024-01-16T04:08:45;3.04;80.02
83102;SHT31;72973;51.784;4.660;2024-01-16T04:11:12;2.99;79.77
83102;SHT31;72973;51.784;4.660;2024-01-16T04:13:40;2.94;80.11
83102;SHT31;72973;51.784;4.660;2024-01-16T04:16:07;2.86;80.42
83102;SHT31;72973;51.784;4.660;2024-01-16T04:18:36;2.77;80.41
83102;SHT31;72973;51.784;4.660;2024-01-16T04:21:06;2.67;80.91
83102;SHT31;72973;51.784;4.660;2024-01-16T04:23:32;2.72;80.90
83102;SHT31;72973;51.784;4.660;2024-01-16T04:25:59;2.80;80.39
83102;SHT31;72973;51.784;4.660;2024-01-16T04:28:26;2.84;79.96
83102;SHT31;72973;51.784;4.660;2024-01-16T04:30:53;2.82;79.90
83102;SHT31;72973;51.784;4.660;2024-01-16T04:33:19;2.90;80.05
83102;SHT31;72973;51.784;4.660;2024-01-16T04:35:46;2.89;80.01
83102;SHT31;72973;51.784;4.660;2024-01-16T04:38:12;2.84;79.58
83102;SHT31;72973;51.784;4.660;2024-01-16T04:40:39;2.94;79.83
83102;SHT31;72973;51.784;4.660;2024-01-16T04:43:05;2.99;79.70
83102;SHT31;72973;51.784;4.660;2024-01-16T04:45:32;2.99;79.68
83102;SHT31;72973;51.784;4.660;2024-01-16T04:47:58;2.94;79.58
83102;SHT31;72973;51.784;4.660;2024-01-16T04:50:25;2.89;79.63
83102;SHT31;72973;51.784;4.660;2024-01-16T04:52:58;2.97;79.29
83102;SHT31;72973;51.784;4.660;2024-01-16T04:55:29;3.01;79.38
83102;SHT31;72973;51.784;4.660;2024-01-16T04:57:56;3.01;79.51
83102;SHT31;72973;51.784;4.660;2024-01-16T05:00:23;3.14;78.82
83102;SHT31;72973;51.784;4.660;2024-01-16T05:02:50;3.25;78.71
83102;SHT31;72973;51.784;4.660;2024-01-16T05:05:18;3.34;77.87
83102;SHT31;72973;51.784;4.660;2024-01-16T05:07:45;3.31;78.58
83102;SHT31;72973;51.784;4.660;2024-01-16T05:10:12;3.32;78.21
83102;SHT31;72973;51.784;4.660;2024-01-16T05:12:41;3.27;78.82
83102;SHT31;72973;51.784;4.660;2024-01-16T05:15:08;3.32;78.09
83102;SHT31;72973;51.784;4.660;2024-01-16T05:17:37;3.36;78.18
83102;SHT31;72973;51.784;4.660;2024-01-16T05:20:04;3.38;78.64
83102;SHT31;72973;51.784;4.660;2024-01-16T05:22:31;3.34;77.97
83102;SHT31;72973;51.784;4.660;2024-01-16T05:24:59;3.34;78.24
83102;SHT31;72973;51.784;4.660;2024-01-16T05:27:25;3.30;78.15
83102;SHT31;72973;51.784;4.660;2024-01-16T05:29:52;3.22;78.06
83102;SHT31;72973;51.784;4.660;2024-01-16T05:32:18;3.27;78.02
83102;SHT31;72973;51.784;4.660;2024-01-16T05:34:45;3.18;77.64
83102;SHT31;72973;51.784;4.660;2024-01-16T05:37:11;3.18;77.80
83102;SHT31;72973;51.784;4.660;2024-01-16T05:39:38;3.08;77.38
83102;SHT31;72973;51.784;4.660;2024-01-16T05:42:04;3.14;77.62
83102;SHT31;72973;51.784;4.660;2024-01-16T05:44:31;3.03;77.74
83102;SHT31;72973;51.784;4.660;2024-01-16T05:46:57;3.07;77.10
83102;SHT31;72973;51.784;4.660;2024-01-16T05:49:24;2.93;76.88
83102;SHT31;72973;51.784;4.660;2024-01-16T05:51:50;2.94;77.88
83102;SHT31;72973;51.784;4.660;2024-01-16T05:54:17;2.92;77.84
83102;SHT31;72973;51.784;4.660;2024-01-16T05:56:44;2.94;77.60
83102;SHT31;72973;51.784;4.660;2024-01-16T05:59:10;2.96;77.51
83102;SHT31;72973;51.784;4.660;2024-01-16T06:01:37;2.97;77.45
83102;SHT31;72973;51.784;4.660;2024-01-16T06:04:04;2.92;77.63
83102;SHT31;72973;51.784;4.660;2024-01-16T06:06:31;2.83;77.62
83102;SHT31;72973;51.784;4.660;2024-01-16T06:08:57;2.76;77.82
83102;SHT31;72973;51.784;4.660;2024-01-16T06:11:32;2.82;77.98
83102;SHT31;72973;51.784;4.660;2024-01-16T06:13:58;2.71;77.85
83102;SHT31;72973;51.784;4.660;2024-01-16T06:16:26;2.75;77.79
83102;SHT31;72973;51.784;4.660;2024-01-16T06:18:52;2.75;77.47
83102;SHT31;72973;51.784;4.660;2024-01-16T06:21:19;2.76;77.99
83102;SHT31;72973;51.784;4.660;2024-01-16T06:23:45;2.76;78.27
83102;SHT31;72973;51.784;4.660;2024-01-16T06:26:11;2.79;78.13
83102;SHT31;72973;51.784;4.660;2024-01-16T06:28:38;2.86;77.87
83102;SHT31;72973;51.784;4.660;2024-01-16T06:31:04;2.77;77.90
83102;SHT31;72973;51.784;4.660;2024-01-16T06:33:31;2.75;78.22
83102;SHT31;72973;51.784;4.660;2024-01-16T06:35:57;2.77;78.34
83102;SHT31;72973;51.784;4.660;2024-01-16T06:38:24;2.76;78.11
83102;SHT31;72973;51.784;4.660;2024-01-16T06:40:50;2.82;77.92
83102;SHT31;72973;51.784;4.660;2024-01-16T06:43:18;2.79;77.97
83102;SHT31;72973;51.784;4.660;2024-01-16T06:45:44;2.84;77.58
83102;SHT31;72973;51.784;4.660;2024-01-16T06:48:11;2.82;77.55
83102;SHT31;72973;51.784;4.660;2024-01-16T06:50:37;2.79;77.99
83102;SHT31;72973;51.784;4.660;2024-01-16T06:53:03;2.76;78.02
83102;SHT31;72973;51.784;4.660;2024-01-16T06:55:30;2.79;77.84
83102;SHT31;72973;51.784;4.660;2024-01-16T06:57:57;2.77;77.76
83102;SHT31;72973;51.784;4.660;2024-01-16T07:00:23;2.84;77.55
83102;SHT31;72973;51.784;4.660;2024-01-16T07:02:55;2.82;77.99
83102;SHT31;72973;51.784;4.660;2024-01-16T07:05:21;2.84;77.50
83102;SHT31;72973;51.784;4.660;2024-01-16T07:07:48;2.89;77.56
83102;SHT31;72973;51.784;4.660;2024-01-16T07:10:14;2.90;77.27
83102;SHT31;72973;51.784;4.660;2024-01-16T07:12:45;2.84;77.15
83102;SHT31;72973;51.784;4.660;2024-01-16T07:15:11;2.86;77.34
83102;SHT31;72973;51.784;4.660;2024-01-16T07:17:38;2.86;77.02
83102;SHT31;72973;51.784;4.660;2024-01-16T07:20:05;2.87;77.20
83102;SHT31;72973;51.784;4.660;2024-01-16T07:22:31;2.79;77.16
83102;SHT31;72973;51.784;4.660;2024-01-16T07:24:57;2.83;76.91
83102;SHT31;72973;51.784;4.660;2024-01-16T07:27:24;2.84;76.97
83102;SHT31;72973;51.784;4.660;2024-01-16T07:29:50;2.82;77.25
83102;SHT31;72973;51.784;4.660;2024-01-16T07:32:16;2.77;76.81
83102;SHT31;72973;51.784;4.660;2024-01-16T07:34:43;2.77;76.87
83102;SHT31;72973;51.784;4.660;2024-01-16T07:37:10;2.82;76.77
83102;SHT31;72973;51.784;4.660;2024-01-16T07:39:36;2.71;76.77
83102;SHT31;72973;51.784;4.660;2024-01-16T07:42:03;2.79;76.88
83102;SHT31;72973;51.784;4.660;2024-01-16T07:44:29;2.73;76.44
83102;SHT31;72973;51.784;4.660;2024-01-16T07:46:56;2.79;76.31
83102;SHT31;72973;51.784;4.660;2024-01-16T07:49:22;2.89;76.57
83102;SHT31;72973;51.784;4.660;2024-01-16T07:51:49;2.83;75.80
83102;SHT31;72973;51.784;4.660;2024-01-16T07:54:16;2.73;75.73
83102;SHT31;72973;51.784;4.660;2024-01-16T07:56:43;2.76;76.39
83102;SHT31;72973;51.784;4.660;2024-01-16T07:59:09;2.75;76.04
83102;SHT31;72973;51.784;4.660;2024-01-16T08:01:35;2.73;76.55
83102;SHT31;72973;51.784;4.660;2024-01-16T08:04:02;2.76;76.25
83102;SHT31;72973;51.784;4.660;2024-01-16T08:06:30;2.83;76.78
83102;SHT31;72973;51.784;4.660;2024-01-16T08:08:57;2.84;76.69
83102;SHT31;72973;51.784;4.660;2024-01-16T08:11:23;2.80;76.41
83102;SHT31;72973;51.784;4.660;2024-01-16T08:13:50;2.82;76.57
83102;SHT31;72973;51.784;4.660;2024-01-16T08:16:16;2.83;76.52
83102;SHT31;72973;51.784;4.660;2024-01-16T08:18:42;2.86;76.41
83102;SHT31;72973;51.784;4.660;2024-01-16T08:21:09;2.83;76.87
83102;SHT31;72973;51.784;4.660;2024-01-16T08:23:35;2.75;76.15
83102;SHT31;72973;51.784;4.660;2024-01-16T08:26:02;2.75;76.33
83102;SHT31;72973;51.784;4.660;2024-01-16T08:28:28;2.71;76.25
83102;SHT31;72973;51.784;4.660;2024-01-16T08:30:55;2.82;76.42
83102;SHT31;72973;51.784;4.660;2024-01-16T08:33:22;2.79;76.70
83102;SHT31;72973;51.784;4.660;2024-01-16T08:35:48;2.83;76.17
83102;SHT31;72973;51.784;4.660;2024-01-16T08:38:14;2.86;75.87
83102;SHT31;72973;51.784;4.660;2024-01-16T08:40:41;2.83;75.47
83102;SHT31;72973;51.784;4.660;2024-01-16T08:43:07;2.89;75.70
83102;SHT31;72973;51.784;4.660;2024-01-16T08:45:34;2.89;76.12
83102;SHT31;72973;51.784;4.660;2024-01-16T08:48:00;2.87;75.86
83102;SHT31;72973;51.784;4.660;2024-01-16T08:50:27;2.80;75.96
83102;SHT31;72973;51.784;4.660;2024-01-16T08:52:53;2.75;75.68
83102;SHT31;72973;51.784;4.660;2024-01-16T08:55:19;2.72;75.95
83102;SHT31;72973;51.784;4.660;2024-01-16T08:57:46;2.75;75.84
83102;SHT31;72973;51.784;4.660;2024-01-16T09:00:12;2.79;75.85
83102;SHT31;72973;51.784;4.660;2024-01-16T09:02:39;2.80;75.73
83102;SHT31;72973;51.784;4.660;2024-01-16T09:05:05;2.87;75.16
83102;SHT31;72973;51.784;4.660;2024-01-16T09:07:32;2.96;75.50
83102;SHT31;72973;51.784;4.660;2024-01-16T09:09:58;3.03;75.23
83102;SHT31;72973;51.784;4.660;2024-01-16T09:12:25;3.07;75.13
83102;SHT31;72973;51.784;4.660;2024-01-16T09:14:52;3.00;74.66
83102;SHT31;72973;51.784;4.660;2024-01-16T09:17:19;3.10;74.85
83102;SHT31;72973;51.784;4.660;2024-01-16T09:19:45;3.01;74.38
83102;SHT31;72973;51.784;4.660;2024-01-16T09:22:11;3.04;74.35
83102;SHT31;72973;51.784;4.660;2024-01-16T09:24:38;3.08;74.39
83102;SHT31;72973;51.784;4.660;2024-01-16T09:27:05;3.08;74.44
83102;SHT31;72973;51.784;4.660;2024-01-16T09:29:32;3.08;74.72
83102;SHT31;72973;51.784;4.660;2024-01-16T09:31:59;3.07;74.20
83102;SHT31;72973;51.784;4.660;2024-01-16T09:34:31;3.14;74.67
83102;SHT31;72973;51.784;4.660;2024-01-16T09:36:58;3.21;73.64
83102;SHT31;72973;51.784;4.660;2024-01-16T09:39:27;3.27;74.24
83102;SHT31;72973;51.784;4.660;2024-01-16T09:41:55;3.21;72.74
83102;SHT31;72973;51.784;4.660;2024-01-16T09:44:23;3.15;73.24
83102;SHT31;72973;51.784;4.660;2024-01-16T09:46:52;3.18;73.64
83102;SHT31;72973;51.784;4.660;2024-01-16T09:49:21;3.14;73.66
83102;SHT31;72973;51.784;4.660;2024-01-16T09:51:47;3.14;74.04
83102;SHT31;72973;51.784;4.660;2024-01-16T09:54:14;3.11;73.75
83102;SHT31;72973;51.784;4.660;2024-01-16T09:56:44;3.14;73.85
83102;SHT31;72973;51.784;4.660;2024-01-16T09:59:17;3.04;73.55
83102;SHT31;72973;51.784;4.660;2024-01-16T10:01:49;3.00;74.32
83102;SHT31;72973;51.784;4.660;2024-01-16T10:04:16;2.92;74.23
83102;SHT31;72973;51.784;4.660;2024-01-16T10:06:45;2.87;73.98
83102;SHT31;72973;51.784;4.660;2024-01-16T10:09:15;2.80;74.22
83102;SHT31;72973;51.784;4.660;2024-01-16T10:11:42;2.80;74.48
83102;SHT31;72973;51.784;4.660;2024-01-16T10:14:10;2.80;73.75
83102;SHT31;72973;51.784;4.660;2024-01-16T10:16:56;2.92;73.96
83102;SHT31;72973;51.784;4.660;2024-01-16T10:19:24;2.97;73.73
83102;SHT31;72973;51.784;4.660;2024-01-16T10:21:51;3.10;73.88
83102;SHT31;72973;51.784;4.660;2024-01-16T10:24:18;2.99;73.14
83102;SHT31;72973;51.784;4.660;2024-01-16T10:26:44;3.05;73.87
83102;SHT31;72973;51.784;4.660;2024-01-16T10:29:11;3.01;73.35
83102;SHT31;72973;51.784;4.660;2024-01-16T10:31:37;3.00;73.39
83102;SHT31;72973;51.784;4.660;2024-01-16T10:34:19;3.03;73.35
83102;SHT31;72973;51.784;4.660;2024-01-16T10:36:49;3.07;73.52
83102;SHT31;72973;51.784;4.660;2024-01-16T10:39:16;3.10;73.49
83102;SHT31;72973;51.784;4.660;2024-01-16T10:41:53;2.99;73.17
83102;SHT31;72973;51.784;4.660;2024-01-16T10:44:20;3.07;73.75
83102;SHT31;72973;51.784;4.660;2024-01-16T10:46:47;3.07;73.11
83102;SHT31;72973;51.784;4.660;2024-01-16T10:49:13;3.13;73.71
83102;SHT31;72973;51.784;4.660;2024-01-16T10:51:43;3.14;72.96
83102;SHT31;72973;51.784;4.660;2024-01-16T10:54:12;3.22;73.27
83102;SHT31;72973;51.784;4.660;2024-01-16T10:56:45;3.27;72.72
83102;SHT31;72973;51.784;4.660;2024-01-16T10:59:24;3.22;72.52
83102;SHT31;72973;51.784;4.660;2024-01-16T11:01:56;3.22;72.65
83102;SHT31;72973;51.784;4.660;2024-01-16T11:04:24;3.20;72.56
83102;SHT31;72973;51.784;4.660;2024-01-16T11:06:54;3.30;72.64
83102;SHT31;72973;51.784;4.660;2024-01-16T11:09:21;3.27;71.93
83102;SHT31;72973;51.784;4.660;2024-01-16T11:11:50;3.43;71.54
83102;SHT31;72973;51.784;4.660;2024-01-16T11:14:19;4.03;69.23
83102;SHT31;72973;51.784;4.660;2024-01-16T11:16:46;4.08;68.78
83102;SHT31;72973;51.784;4.660;2024-01-16T11:19:16;4.36;68.62
83102;SHT31;72973;51.784;4.660;2024-01-16T11:21:45;4.24;68.79
83102;SHT31;72973;51.784;4.660;2024-01-16T11:24:12;4.37;68.44
83102;SHT31;72973;51.784;4.660;2024-01-16T11:26:42;4.68;67.44
83102;SHT31;72973;51.784;4.660;2024-01-16T11:31:55;4.61;67.52
83102;SHT31;72973;51.784;4.660;2024-01-16T11:37:11;4.99;66.15
83102;SHT31;72973;51.784;4.660;2024-01-16T11:39:38;5.03;65.53
83102;SHT31;72973;51.784;4.660;2024-01-16T11:42:04;5.17;65.94
83102;SHT31;72973;51.784;4.660;2024-01-16T11:44:44;4.97;66.45
83102;SHT31;72973;51.784;4.660;2024-01-16T11:47:24;4.54;66.63
83102;SHT31;72973;51.784;4.660;2024-01-16T11:52:45;5.00;65.27
83102;SHT31;72973;51.784;4.660;2024-01-16T11:55:32;4.90;66.12
83102;SHT31;72973;51.784;4.660;2024-01-16T11:58:25;4.79;66.53
83102;SHT31;72973;51.784;4.660;2024-01-16T12:00:57;4.47;67.40
83102;SHT31;72973;51.784;4.660;2024-01-16T12:03:23;4.08;69.14
83102;SHT31;72973;51.784;4.660;2024-01-16T12:06:00;3.82;69.79
83102;SHT31;72973;51.784;4.660;2024-01-16T12:08:26;3.76;69.85
83102;SHT31;72973;51.784;4.660;2024-01-16T12:10:53;3.69;69.80
83102;SHT31;72973;51.784;4.660;2024-01-16T12:13:19;3.66;69.29
83102;SHT31;72973;51.784;4.660;2024-01-16T12:15:46;3.63;69.99
83102;SHT31;72973;51.784;4.660;2024-01-16T12:18:18;3.63;70.59
83102;SHT31;72973;51.784;4.660;2024-01-16T12:20:45;3.66;70.69
83102;SHT31;72973;51.784;4.660;2024-01-16T12:23:11;3.70;69.48
83102;SHT31;72973;51.784;4.660;2024-01-16T12:25:39;3.66;69.84
83102;SHT31;72973;51.784;4.660;2024-01-16T12:28:07;3.82;69.79
83102;SHT31;72973;51.784;4.660;2024-01-16T12:30:37;3.86;69.22
83102;SHT31;72973;51.784;4.660;2024-01-16T12:33:09;3.89;70.48
83102;SHT31;72973;51.784;4.660;2024-01-16T12:35:37;3.89;69.66
83102;SHT31;72973;51.784;4.660;2024-01-16T12:38:07;3.82;70.40
83102;SHT31;72973;51.784;4.660;2024-01-16T12:40:37;3.78;70.25
83102;SHT31;72973;51.784;4.660;2024-01-16T12:43:04;3.78;70.36
83102;SHT31;72973;51.784;4.660;2024-01-16T12:45:32;3.93;70.06
83102;SHT31;72973;51.784;4.660;2024-01-16T12:48:00;3.91;70.13
83102;SHT31;72973;51.784;4.660;2024-01-16T12:50:27;3.91;70.58
83102;SHT31;72973;51.784;4.660;2024-01-16T12:55:34;3.96;69.58
83102;SHT31;72973;51.784;4.660;2024-01-16T12:58:16;3.90;69.62
83102;SHT31;72973;51.784;4.660;2024-01-16T13:00:47;3.85;69.57
83102;SHT31;72973;51.784;4.660;2024-01-16T13:03:19;3.90;69.66
83102;SHT31;72973;51.784;4.660;2024-01-16T13:05:53;3.90;70.00
83102;SHT31;72973;51.784;4.660;2024-01-16T13:08:21;3.91;68.88
83102;SHT31;72973;51.784;4.660;2024-01-16T13:11:02;3.90;68.94
83102;SHT31;72973;51.784;4.660;2024-01-16T13:13:30;3.94;69.29
83102;SHT31;72973;51.784;4.660;2024-01-16T13:15:58;4.03;69.61
83102;SHT31;72973;51.784;4.660;2024-01-16T13:18:27;4.07;69.90
83102;SHT31;72973;51.784;4.660;2024-01-16T13:20:55;4.06;69.50
83102;SHT31;72973;51.784;4.660;2024-01-16T13:23:24;4.21;69.40
83102;SHT31;72973;51.784;4.660;2024-01-16T13:25:54;4.30;69.04
83102;SHT31;72973;51.784;4.660;2024-01-16T13:28:29;4.25;69.59
83102;SHT31;72973;51.784;4.660;2024-01-16T13:30:56;4.34;68.87
83102;SHT31;72973;51.784;4.660;2024-01-16T13:33:24;4.27;69.54
83102;SHT31;72973;51.784;4.660;2024-01-16T13:35:53;4.14;68.42
83102;SHT31;72973;51.784;4.660;2024-01-16T13:38:23;4.13;69.00
83102;SHT31;72973;51.784;4.660;2024-01-16T13:40:50;4.03;68.64
83102;SHT31;72973;51.784;4.660;2024-01-16T13:43:16;4.11;69.76
83102;SHT31;72973;51.784;4.660;2024-01-16T13:45:43;4.07;69.26
83102;SHT31;72973;51.784;4.660;2024-01-16T13:48:09;4.04;69.71
83102;SHT31;72973;51.784;4.660;2024-01-16T13:50:36;4.04;68.76
83102;SHT31;72973;51.784;4.660;2024-01-16T13:53:03;4.00;68.45
83102;SHT31;72973;51.784;4.660;2024-01-16T13:55:29;4.04;69.13
83102;SHT31;72973;51.784;4.660;2024-01-16T13:57:58;3.99;69.22
83102;SHT31;72973;51.784;4.660;2024-01-16T14:00:24;4.01;68.89
83102;SHT31;72973;51.784;4.660;2024-01-16T14:02:51;3.94;68.62
83102;SHT31;72973;51.784;4.660;2024-01-16T14:05:19;3.91;68.62
83102;SHT31;72973;51.784;4.660;2024-01-16T14:07:52;3.97;69.42
83102;SHT31;72973;51.784;4.660;2024-01-16T14:10:20;3.99;69.82
83102;SHT31;72973;51.784;4.660;2024-01-16T14:12:49;4.06;69.31
83102;SHT31;72973;51.784;4.660;2024-01-16T14:15:18;3.99;68.69
83102;SHT31;72973;51.784;4.660;2024-01-16T14:17:50;3.91;69.16
83102;SHT31;72973;51.784;4.660;2024-01-16T14:20:18;3.89;69.51
83102;SHT31;72973;51.784;4.660;2024-01-16T14:22:50;3.90;69.53
83102;SHT31;72973;51.784;4.660;2024-01-16T14:25:16;3.90;68.89
83102;SHT31;72973;51.784;4.660;2024-01-16T14:30:23;3.96;69.04
83102;SHT31;72973;51.784;4.660;2024-01-16T14:32:51;3.94;68.64
83102;SHT31;72973;51.784;4.660;2024-01-16T14:35:19;3.86;68.42
83102;SHT31;72973;51.784;4.660;2024-01-16T14:37:46;3.93;69.54
83102;SHT31;72973;51.784;4.660;2024-01-16T14:40:12;4.03;69.66
83102;SHT31;72973;51.784;4.660;2024-01-16T14:42:39;4.11;69.05
83102;SHT31;72973;51.784;4.660;2024-01-16T14:45:07;4.20;69.45
83102;SHT31;72973;51.784;4.660;2024-01-16T14:47:37;4.21;69.15
83102;SHT31;72973;51.784;4.660;2024-01-16T14:50:04;4.27;67.92
83102;SHT31;72973;51.784;4.660;2024-01-16T14:52:31;4.31;68.27
83102;SHT31;72973;51.784;4.660;2024-01-16T14:55:00;4.34;67.86
83102;SHT31;72973;51.784;4.660;2024-01-16T14:57:27;4.47;67.07
83102;SHT31;72973;51.784;4.660;2024-01-16T14:59:57;4.30;66.64
83102;SHT31;72973;51.784;4.660;2024-01-16T15:02:23;4.44;68.23
83102;SHT31;72973;51.784;4.660;2024-01-16T15:04:49;4.37;67.58
83102;SHT31;72973;51.784;4.660;2024-01-16T15:07:16;4.37;67.93
83102;SHT31;72973;51.784;4.660;2024-01-16T15:09:42;4.24;67.69
83102;SHT31;72973;51.784;4.660;2024-01-16T15:12:09;4.11;69.00
83102;SHT31;72973;51.784;4.660;2024-01-16T15:14:36;4.17;69.25
83102;SHT31;72973;51.784;4.660;2024-01-16T15:17:03;4.10;68.95
83102;SHT31;72973;51.784;4.660;2024-01-16T15:19:29;4.11;68.78
83102;SHT31;72973;51.784;4.660;2024-01-16T15:21:55;4.00;68.74
83102;SHT31;72973;51.784;4.660;2024-01-16T15:24:22;3.91;69.67
83102;SHT31;72973;51.784;4.660;2024-01-16T15:26:52;3.86;70.00
83102;SHT31;72973;51.784;4.660;2024-01-16T15:29:19;3.82;69.72
83102;SHT31;72973;51.784;4.660;2024-01-16T15:31:46;3.69;70.49
83102;SHT31;72973;51.784;4.660;2024-01-16T15:34:13;3.72;69.71
83102;SHT31;72973;51.784;4.660;2024-01-16T15:36:40;3.69;70.48
83102;SHT31;72973;51.784;4.660;2024-01-16T15:39:06;3.66;70.56
83102;SHT31;72973;51.784;4.660;2024-01-16T15:41:33;3.65;70.26
83102;SHT31;72973;51.784;4.660;2024-01-16T15:43:59;3.51;70.84
83102;SHT31;72973;51.784;4.660;2024-01-16T15:46:28;3.55;70.87
83102;SHT31;72973;51.784;4.660;2024-01-16T15:48:55;3.46;70.55
83102;SHT31;72973;51.784;4.660;2024-01-16T15:51:22;3.45;70.81
83102;SHT31;72973;51.784;4.660;2024-01-16T15:53:49;3.35;70.93
83102;SHT31;72973;51.784;4.660;2024-01-16T15:56:15;3.34;70.95
83102;SHT31;72973;51.784;4.660;2024-01-16T15:58:42;3.22;70.87
83102;SHT31;72973;51.784;4.660;2024-01-16T16:01:08;3.15;71.18